Latest Weather Observations for Merriwa

IDN60801

Issued at 10:33 pm EDT Thursday 5 March 2015 (issued every 30 minutes, with the page automatically refreshed every 10 minutes)

About weather observations | Map of weather stations | Latest weather observations for NSW | Other Formats
Station Details ID: 061287 Name: MERRIWA (ROSCOMMON) Lat: -32.19 Lon: 150.17 Height: 375.0 m
Data from the previous 72 hours. | See also: Recent months at Merriwa
Date/Time
EDT
Temp
°C
App
Temp
°C
Dew
Point
Rel
Hum
%
Delta-T
°C
Wind Press
QNH
hPa
Press
MSL
hPa
Rain
since 9 am
mm
Dir
 
Spd
km/h
Gust
km/h
Spd
kts
Gust
kts
05/10:30pm 16.6 13.9 11.7 73 2.7 ESE 17 20 9 11 1013.9 1012.6 0.0
05/10:00pm 17.1 14.5 12.0 72 2.8 ESE 17 30 9 16 1013.6 1012.3 0.0
05/09:30pm 17.6 13.8 12.3 71 3.0 E 24 35 13 19 1013.1 1011.8 0.0
05/09:00pm 18.4 14.7 12.8 70 3.2 E 24 37 13 20 1012.2 1010.8 0.0
05/08:30pm 20.1 17.3 11.3 57 4.9 S 17 24 9 13 1011.3 1010.0 0.0
05/08:00pm 22.4 17.8 3.5 29 9.3 WSW 17 24 9 13 1010.4 1009.1 0.0
05/07:30pm 23.5 18.6 4.0 28 9.7 WSW 19 28 10 15 1010.0 1008.6 0.0
05/07:00pm 24.9 19.9 4.6 27 10.4 W 20 28 11 15 1009.6 1008.2 0.0
05/06:30pm 26.2 21.4 4.6 25 11.1 WSW 19 26 10 14 1009.2 1007.8 0.0
05/06:00pm 27.1 21.6 4.2 23 11.8 W 22 32 12 17 1008.9 1007.5 0.0
05/05:30pm 27.6 22.2 4.6 23 11.9 W 22 32 12 17 1008.7 1007.4 0.0
05/05:00pm 27.9 22.6 4.9 23 12.0 WSW 22 33 12 18 1008.6 1007.3 0.0
05/04:30pm 28.1 22.4 5.0 23 12.1 WSW 24 37 13 20 1008.7 1007.4 0.0
05/04:00pm 28.0 22.8 5.6 24 11.9 WSW 22 37 12 20 1009.0 1007.6 0.0
05/03:30pm 28.9 23.0 5.7 23 12.3 W 26 46 14 25 1009.1 1007.7 0.0
05/03:00pm 28.3 22.2 4.6 22 12.4 W 26 39 14 21 1009.3 1007.9 0.0
05/02:44pm 27.8 20.6 4.8 23 12.0 W 32 50 17 27 1009.3 1007.9 0.0
05/02:30pm 28.1 21.7 5.0 23 12.1 W 28 41 15 22 1009.6 1008.2 0.0
05/02:00pm 28.0 21.4 4.3 22 12.3 W 28 46 15 25 1009.5 1008.1 0.0
05/01:30pm 27.6 21.5 4.6 23 11.9 W 26 41 14 22 1009.7 1008.3 0.0
05/01:00pm 27.9 21.8 4.9 23 12.0 WSW 26 41 14 22 1009.9 1008.5 0.0
05/12:38pm 27.7 21.4 5.9 25 11.6 W 28 46 15 25 1010.1 1008.7 0.0
05/12:30pm 27.0 19.9 5.3 25 11.3 W 32 46 17 25 1010.3 1009.0 0.0
05/12:11pm 26.9 20.5 5.2 25 11.3 W 28 48 15 26 1010.4 1009.1 0.0
05/12:00pm 27.1 20.6 6.5 27 11.0 WSW 30 41 16 22 1010.5 1009.2 0.0
05/11:30am 26.6 21.0 5.5 26 11.0 WSW 24 41 13 22 1010.8 1009.5 0.0
05/11:00am 25.8 19.0 4.9 26 10.8 WSW 30 43 16 23 1010.9 1009.6 0.0
05/10:30am 25.3 18.7 4.4 26 10.6 W 28 39 15 21 1010.6 1009.3 0.0
05/10:00am 25.6 20.3 2.9 23 11.3 W 20 32 11 17 1010.5 1009.2 0.0
05/09:30am 24.4 18.9 1.9 23 10.9 W 20 30 11 16 1010.5 1009.2 0.0
05/09:00am 23.2 18.0 3.7 28 9.7 WNW 20 28 11 15 1010.6 1009.3 0.0
05/08:30am 22.3 17.2 3.9 30 9.1 WNW 20 30 11 16 1010.5 1009.2 0.0
05/08:00am 21.1 16.1 4.6 34 8.2 NW 20 28 11 15 1010.2 1008.8 0.0
05/07:30am 19.7 15.3 4.6 37 7.4 NW 17 22 9 12 1009.9 1008.5 0.0
05/07:00am 19.0 14.6 4.7 39 7.0 NW 17 22 9 12 1009.5 1008.1 0.0
05/06:30am 19.1 14.9 5.6 41 6.8 NW 17 20 9 11 1009.1 1007.7 0.0
05/06:00am 18.4 14.6 5.9 44 6.3 WNW 15 17 8 9 1008.7 1007.4 0.0
05/05:30am 18.3 14.9 5.8 44 6.2 WNW 13 17 7 9 1008.4 1007.1 0.0
05/05:00am 18.3 15.3 6.2 45 6.1 NW 11 15 6 8 1008.3 1007.0 0.0
05/04:30am 19.3 17.1 6.4 43 6.6 WNW 7 13 4 7 1008.6 1007.3 0.0
05/04:00am 19.4 16.5 6.5 43 6.6 NW 11 15 6 8 1008.5 1007.2 0.0
05/03:30am 19.7 16.9 7.1 44 6.5 WNW 11 17 6 9 1008.9 1007.5 0.0
05/03:00am 20.6 17.4 6.9 41 7.1 WNW 13 15 7 8 1008.9 1007.5 0.0
05/02:30am 20.9 17.8 7.2 41 7.1 WNW 13 17 7 9 1009.0 1007.6 0.0
05/02:00am 20.7 18.1 7.7 43 6.8 WNW 11 13 6 7 1009.3 1007.9 0.0
05/01:30am 20.9 18.3 7.9 43 6.9 WNW 11 13 6 7 1009.6 1008.2 0.0
05/01:00am 22.4 19.7 7.4 38 7.9 W 11 13 6 7 1009.9 1008.5 0.0
05/12:30am 19.7 17.6 9.6 52 5.5 WNW 11 11 6 6 1010.0 1008.6 0.0
05/12:00am 20.8 20.2 10.3 51 5.8 W 4 11 2 6 1010.0 1008.6 0.0
 
Date/Time
EDT
Temp
°C
App
Temp
°C
Dew
Point
Rel
Hum
%
Delta-T
°C
Wind Press
QNH
hPa
Press
MSL
hPa
Rain
since 9 am
mm
Dir
 
Spd
km/h
Gust
km/h
Spd
kts
Gust
kts
04/11:30pm 20.3 19.5 11.2 56 5.1 W 6 9 3 5 1010.1 1008.7 0.0
04/11:00pm 22.7 21.2 9.1 42 7.4 WSW 7 9 4 5 1010.2 1008.8 0.0
04/10:30pm 24.5 22.8 8.5 36 8.7 SW 7 13 4 7 1010.3 1009.0 0.0
04/10:00pm 24.1 22.1 8.5 37 8.5 W 9 13 5 7 1010.3 1009.0 0.0
04/09:30pm 24.7 22.8 9.0 37 8.6 W 9 13 5 7 1010.1 1008.7 0.0
04/09:00pm 25.1 22.8 9.0 36 8.9 W 11 15 6 8 1009.7 1008.3 0.0
04/08:30pm 27.7 25.7 8.6 30 10.6 W 9 13 5 7 1009.3 1007.9 0.0
04/08:00pm 27.4 25.4 8.8 31 10.4 W 9 11 5 6 1009.1 1007.7 0.0
04/07:30pm 30.7 28.4 9.0 26 12.3 W 11 15 6 8 1008.9 1007.5 0.0
04/07:00pm 32.7 30.9 10.7 26 13.0 W 11 17 6 9 1008.9 1007.5 0.0
04/06:30pm 33.7 30.4 10.9 25 13.5 W 19 26 10 14 1008.7 1007.4 0.0
04/06:00pm 34.2 30.3 10.7 24 13.9 WSW 22 33 12 18 1008.7 1007.4 0.0
04/05:30pm 35.3 32.4 12.3 25 14.0 W 19 32 10 17 1008.6 1007.3 0.0
04/05:00pm 35.7 32.7 12.6 25 14.2 W 20 32 11 17 1008.7 1007.4 0.0
04/04:30pm 35.9 33.0 12.8 25 14.2 WNW 20 35 11 19 1008.7 1007.4 0.0
04/04:00pm 35.9 33.6 14.0 27 13.7 WSW 19 33 10 18 1009.0 1007.6 0.0
04/03:30pm 33.1 32.3 15.1 33 11.3 NW 13 22 7 12 1009.6 1008.2 0.0
04/03:00pm 33.0 32.5 15.0 33 11.3 WNW 11 20 6 11 1010.0 1008.6 0.0
04/02:30pm 34.7 34.4 16.5 33 11.7 WNW 13 17 7 9 1010.4 1009.1 0.0
04/02:00pm 32.7 33.9 17.3 39 10.0 W 7 17 4 9 1010.8 1009.5 0.0
04/01:30pm 31.6 30.4 16.0 39 9.9 W 17 24 9 13 1011.3 1010.0 0.0
04/01:00pm 32.9 31.0 16.7 38 10.4 NW 22 32 12 17 1011.9 1010.5 0.0
04/12:30pm 32.4 31.6 17.1 40 9.9 WNW 17 24 9 13 1012.2 1010.8 0.0
04/12:00pm 30.7 31.2 17.4 45 8.6 NW 11 17 6 9 1013.0 1011.7 0.0
04/11:30am 29.6 31.4 18.7 52 7.1 NW 7 15 4 8 1013.6 1012.3 0.0
04/11:00am 28.7 30.5 18.8 55 6.5 NNE 7 11 4 6 1014.2 1012.9 0.0
04/10:30am 26.4 27.5 18.0 60 5.4 ESE 9 17 5 9 1014.7 1013.3 0.0
04/10:00am 25.3 26.0 18.0 64 4.7 ESE 11 19 6 10 1014.7 1013.3 0.0
04/09:30am 24.0 24.1 17.5 67 4.1 ESE 13 19 7 10 1014.9 1013.5 0.0
04/09:00am 23.2 23.0 17.6 71 3.5 E 15 20 8 11 1014.8 1013.4 0.0
04/08:30am 22.2 22.1 17.8 76 2.8 ENE 15 20 8 11 1014.6 1013.2 0.0
04/08:00am 21.3 22.4 18.1 82 2.0 E 9 15 5 8 1014.3 1013.0 0.0
04/07:30am 20.2 20.8 17.8 86 1.5 E 11 17 6 9 1014.0 1012.7 0.0
04/07:00am 19.7 20.7 17.7 88 1.2 ENE 9 13 5 7 1013.4 1012.1 0.0
04/06:30am 19.8 20.4 17.8 88 1.2 E 11 17 6 9 1012.9 1011.6 0.0
04/06:00am 20.0 20.9 17.6 86 1.5 E 9 13 5 7 1012.8 1011.5 0.0
04/05:30am 20.5 21.9 17.7 84 1.8 E 7 11 4 6 1012.6 1011.2 0.0
04/05:00am 20.7 21.8 17.9 84 1.8 E 9 13 5 7 1012.4 1011.0 0.0
04/04:30am 20.9 21.9 17.7 82 2.0 ENE 9 15 5 8 1012.4 1011.0 0.0
04/04:00am 21.3 22.0 17.9 81 2.1 ENE 11 13 6 7 1012.5 1011.1 0.0
04/03:30am 21.5 22.1 17.7 79 2.4 ENE 11 15 6 8 1012.6 1011.2 0.0
04/03:00am 21.8 23.2 17.8 78 2.5 E 7 13 4 7 1012.9 1011.6 0.0
04/02:30am 21.9 23.3 17.9 78 2.5 ENE 7 13 4 7 1012.9 1011.6 0.0
04/02:00am 21.9 23.3 17.7 77 2.6 E 7 11 4 6 1013.1 1011.8 0.0
04/01:30am 22.2 23.1 17.6 75 2.9 E 9 15 5 8 1013.2 1011.9 0.0
04/01:00am 22.8 23.8 17.7 73 3.2 E 9 15 5 8 1013.5 1012.2 0.0
04/12:30am 23.0 24.0 17.7 72 3.3 E 9 13 5 7 1013.4 1012.1 0.0
04/12:00am 23.3 23.9 17.7 71 3.5 E 11 15 6 8 1013.4 1012.1 0.0
 
Date/Time
EDT
Temp
°C
App
Temp
°C
Dew
Point
Rel
Hum
%
Delta-T
°C
Wind Press
QNH
hPa
Press
MSL
hPa
Rain
since 9 am
mm
Dir
 
Spd
km/h
Gust
km/h
Spd
kts
Gust
kts
03/11:30pm 23.5 23.7 17.7 70 3.7 E 13 17 7 9 1013.4 1012.1 0.0
03/11:00pm 24.2 24.4 17.7 67 4.1 E 13 20 7 11 1013.4 1012.1 0.0
03/10:30pm 25.0 24.5 17.7 64 4.6 ESE 17 22 9 12 1013.5 1012.2 0.0
03/10:00pm 25.9 25.0 18.1 62 5.0 ESE 20 26 11 14 1013.3 1012.0 0.0
03/09:30pm 26.9 26.0 17.7 57 5.9 ESE 19 26 10 14 1013.2 1011.9 0.0
03/09:00pm 27.9 27.7 16.8 50 7.0 E 13 20 7 11 1012.8 1011.5 0.0
03/08:30pm 28.5 29.6 17.1 50 7.3 E 7 13 4 7 1012.5 1011.1 0.0
03/08:00pm 29.2 29.8 16.7 46 7.9 ENE 9 13 5 7 1012.1 1010.7 0.0
03/07:30pm 30.1 30.6 16.5 44 8.6 ENE 9 13 5 7 1012.0 1010.6 0.0
03/07:00pm 31.0 31.0 16.2 41 9.4 ENE 11 15 6 8 1011.8 1010.4 0.0
03/06:30pm 32.5 32.4 15.9 36 10.5 NE 11 19 6 10 1011.8 1010.4 0.0
03/06:00pm 32.8 33.6 15.8 36 10.8 N 6 9 3 5 1012.0 1010.6 0.0
03/05:30pm 33.8 35.1 16.2 35 11.3 NW 4 11 2 6 1012.0 1010.6 0.0
03/05:00pm 33.0 33.6 15.9 35 10.9 NNW 7 13 4 7 1012.1 1010.7 0.0
03/04:30pm 33.2 31.7 15.2 33 11.3 NW 17 22 9 12 1012.2 1010.8 0.0
03/04:00pm 33.8 32.8 15.7 33 11.5 N 15 20 8 11 1012.3 1010.9 0.0
03/03:30pm 32.7 32.7 15.2 34 11.0 NW 9 15 5 8 1012.8 1011.5 0.0
03/03:00pm 32.2 32.4 15.7 37 10.4 W 9 17 5 9 1013.2 1011.9 0.0
03/02:30pm 31.8 32.0 15.7 37 10.2 WSW 9 20 5 11 1014.0 1012.7 0.0
03/02:00pm 30.9 31.5 16.9 43 9.0 SSW 9 19 5 10 1014.6 1013.2 0.0
03/01:30pm 29.5 29.6 15.6 43 8.7 WSW 9 17 5 9 1015.0 1013.7 0.0
03/01:00pm 28.5 29.2 16.1 47 7.8 SW 7 11 4 6 1015.6 1014.3 0.0
03/12:30pm 27.9 28.4 14.9 45 8.0 W 6 11 3 6 1016.2 1014.9 0.0
03/12:00pm 26.9 27.7 15.9 51 6.8 S 6 9 3 5 1016.9 1015.6 0.0
03/11:30am 25.8 26.3 15.5 53 6.3 SE 7 13 4 7 1017.4 1016.1 0.0
03/11:00am 24.5 24.6 14.0 52 6.3 E 6 11 3 6 1017.6 1016.3 0.0
03/10:30am 22.8 22.8 14.1 58 5.2 ESE 7 13 4 7 1017.8 1016.5 0.0
03/10:00am 21.7 21.9 14.1 62 4.5 SE 6 13 3 7 1018.1 1016.8 0.0
03/09:30am 20.3 19.8 13.7 66 3.9 E 9 13 5 7 1017.8 1016.5 0.0
03/09:00am 19.3 18.6 13.2 68 3.5 E 9 13 5 7 1017.8 1016.5 0.0
03/08:30am 18.4 18.4 14.3 77 2.4 E 7 11 4 6 1017.6 1016.3 0.0
03/08:00am 15.9 15.9 14.3 90 0.9 E 7 9 4 5 1017.7 1016.4 0.0
03/07:30am 13.4 13.6 13.1 98 0.2 E 4 6 2 3 1017.3 1015.9 0.0
03/07:00am 12.3 12.9 12.0 98 0.2 CALM 0 0 0 0 1016.8 1015.5 0.0
03/06:30am 12.7 12.3 12.4 98 0.2 E 6 7 3 4 1016.6 1015.3 0.0
03/06:00am 12.9 12.9 12.4 97 0.3 E 4 6 2 3 1016.3 1015.0 0.0
03/05:30am 13.4 13.5 12.6 95 0.4 E 4 7 2 4 1016.0 1014.7 0.0
03/05:00am 12.8 13.4 12.0 95 0.4 CALM 0 0 0 0 1015.8 1014.5 0.0
03/04:30am 12.9 12.4 12.1 95 0.4 E 6 6 3 3 1015.8 1014.5 0.0
03/04:00am 12.6 12.2 11.2 91 0.8 E 4 6 2 3 1015.7 1014.4 0.0
03/03:30am 13.4 14.0 12.0 91 0.8 CALM 0 0 0 0 1016.0 1014.7 0.0
03/03:00am 13.7 13.9 11.7 88 1.1 ESE 2 7 1 4 1016.2 1014.9 0.0
03/02:30am 14.4 13.4 12.3 87 1.2 ESE 9 11 5 6 1016.4 1015.1 0.0
03/02:00am 14.7 13.7 12.2 85 1.4 ESE 9 9 5 5 1016.8 1015.5 0.0
03/01:30am 15.7 14.0 12.6 82 1.7 ESE 13 15 7 8 1017.3 1015.9 0.0
03/01:00am 15.9 14.2 12.6 81 1.8 ESE 13 15 7 8 1017.7 1016.4 0.0
03/12:30am 16.3 14.8 13.0 81 1.9 SE 13 17 7 9 1017.9 1016.6 0.0
03/12:00am 16.3 15.1 12.8 80 2.0 SE 11 15 6 8 1018.1 1016.8 0.0
 
Date/Time
EDT
Temp
°C
App
Temp
°C
Dew
Point
Rel
Hum
%
Delta-T
°C
Wind Press
QNH
hPa
Press
MSL
hPa
Rain
since 9 am
mm
Dir
 
Spd
km/h
Gust
km/h
Spd
kts
Gust
kts
02/11:30pm 16.2 14.9 12.4 78 2.1 ESE 11 15 6 8 1018.1 1016.8 0.0
02/11:00pm 17.4 15.8 12.7 74 2.7 ESE 13 19 7 10 1018.1 1016.8 0.0

Other Formats:

Comma delimited format used in spreadsheet applications
http://www.bom.gov.au/fwo/IDN60801/IDN60801.95754.axf

JavaScript Object Notation format (JSON) in row-major order
http://www.bom.gov.au/fwo/IDN60801/IDN60801.95754.json